createdAt,value
2023-02-24T00:02:20.287Z,21.10
2023-02-24T00:04:52.025Z,21.08
2023-02-24T00:07:22.911Z,21.06
2023-02-24T00:09:53.652Z,21.05
2023-02-24T00:12:25.028Z,21.03
2023-02-24T00:14:55.737Z,21.00
2023-02-24T00:17:28.014Z,21.02
2023-02-24T00:19:59.105Z,21.01
2023-02-24T00:22:30.047Z,20.98
2023-02-24T00:25:03.811Z,20.96
2023-02-24T00:27:33.530Z,20.95
2023-02-24T00:30:07.083Z,20.95
2023-02-24T00:32:38.442Z,20.94
2023-02-24T00:35:11.060Z,20.94
2023-02-24T00:37:41.711Z,20.92
2023-02-24T00:40:15.575Z,20.91
2023-02-24T00:42:44.642Z,20.90
2023-02-24T00:45:16.987Z,20.91
2023-02-24T00:47:47.744Z,20.90
2023-02-24T00:50:19.012Z,20.90
2023-02-24T00:52:50.994Z,20.90
2023-02-24T00:55:23.414Z,20.88
2023-02-24T00:57:54.153Z,20.84
2023-02-24T01:00:25.622Z,20.88
2023-02-24T01:02:59.461Z,20.87
2023-02-24T01:05:29.024Z,20.87
2023-02-24T01:07:59.830Z,20.86
2023-02-24T01:10:30.572Z,20.83
2023-02-24T01:13:01.256Z,20.81
2023-02-24T01:15:32.110Z,20.81
2023-02-24T01:18:02.802Z,20.81
2023-02-24T01:20:33.567Z,20.80
2023-02-24T01:23:04.660Z,20.80
2023-02-24T01:25:35.820Z,20.78
2023-02-24T01:28:11.212Z,20.77
2023-02-24T01:30:43.903Z,20.76
2023-02-24T01:33:15.482Z,20.74
2023-02-24T01:35:47.069Z,20.73
2023-02-24T01:38:23.182Z,20.73
2023-02-24T01:41:00.414Z,20.73
2023-02-24T01:43:31.196Z,20.71
2023-02-24T01:46:02.022Z,20.72
2023-02-24T01:48:33.338Z,20.70
2023-02-24T01:51:04.158Z,20.69
2023-02-24T01:53:34.923Z,20.69
2023-02-24T01:56:07.058Z,20.67
2023-02-24T01:58:38.242Z,20.69
2023-02-24T02:01:10.326Z,20.69
2023-02-24T02:03:44.044Z,20.59
2023-02-24T02:06:17.841Z,20.68
2023-02-24T02:08:47.431Z,20.66
2023-02-24T02:11:23.044Z,20.67
2023-02-24T02:13:57.015Z,20.67
2023-02-24T02:16:47.096Z,20.67
2023-02-24T02:19:49.544Z,20.64
2023-02-24T02:22:35.406Z,20.66
2023-02-24T02:25:15.430Z,20.62
2023-02-24T02:28:32.794Z,20.63
2023-02-24T02:31:51.967Z,20.59
2023-02-24T02:34:45.333Z,20.60
2023-02-24T02:37:22.373Z,20.61
2023-02-24T02:40:01.427Z,20.59
2023-02-24T02:42:41.138Z,20.59
2023-02-24T02:45:17.814Z,20.52
2023-02-24T02:47:54.049Z,20.54
2023-02-24T02:50:32.991Z,20.57
2023-02-24T02:53:09.067Z,20.60
2023-02-24T02:55:47.318Z,20.60
2023-02-24T02:58:23.611Z,20.59
2023-02-24T03:01:02.601Z,20.59
2023-02-24T03:03:37.151Z,20.59
2023-02-24T03:06:11.057Z,20.58
2023-02-24T03:08:43.597Z,20.57
2023-02-24T03:11:20.579Z,20.58
2023-02-24T03:13:56.028Z,20.56
2023-02-24T03:16:28.516Z,20.54
2023-02-24T03:19:05.241Z,20.52
2023-02-24T03:21:39.885Z,20.39
2023-02-24T03:24:11.193Z,20.49
2023-02-24T03:26:49.308Z,20.49
2023-02-24T03:29:24.417Z,20.48
2023-02-24T03:32:00.546Z,20.48
2023-02-24T03:34:40.071Z,20.48
2023-02-24T03:37:11.086Z,20.48
2023-02-24T03:39:42.263Z,20.47
2023-02-24T03:42:19.123Z,20.47
2023-02-24T03:44:50.183Z,20.49
2023-02-24T03:47:21.430Z,20.48
2023-02-24T03:49:52.293Z,20.53
2023-02-24T03:52:35.548Z,20.53
2023-02-24T03:55:19.549Z,20.54
2023-02-24T03:58:01.741Z,20.55
2023-02-24T04:00:39.875Z,20.57
2023-02-24T04:03:23.708Z,20.58
2023-02-24T04:06:05.815Z,20.61
2023-02-24T04:08:45.213Z,20.62
2023-02-24T04:11:24.832Z,20.65
2023-02-24T04:14:01.975Z,20.68
2023-02-24T04:16:40.021Z,20.70
2023-02-24T04:19:15.225Z,20.72
2023-02-24T04:21:48.983Z,20.74
2023-02-24T04:24:23.845Z,20.76
2023-02-24T04:26:58.896Z,20.78
2023-02-24T04:29:35.715Z,20.79
2023-02-24T04:32:09.773Z,20.80
2023-02-24T04:34:41.811Z,20.82
2023-02-24T04:37:13.468Z,20.84
2023-02-24T04:39:46.183Z,20.74
2023-02-24T04:42:16.993Z,20.84
2023-02-24T04:44:48.044Z,20.84
2023-02-24T04:47:18.660Z,20.85
2023-02-24T04:49:49.309Z,20.75
2023-02-24T04:52:20.766Z,20.87
2023-02-24T04:54:51.497Z,20.88
2023-02-24T04:57:22.450Z,20.83
2023-02-24T04:59:53.993Z,20.88
2023-02-24T05:02:24.941Z,20.75
2023-02-24T05:04:56.217Z,20.88
2023-02-24T05:07:29.098Z,20.90
2023-02-24T05:10:00.149Z,20.90
2023-02-24T05:12:32.529Z,20.91
2023-02-24T05:15:05.629Z,20.91
2023-02-24T05:17:36.499Z,20.92
2023-02-24T05:20:26.322Z,20.93
2023-02-24T05:22:57.690Z,20.93
2023-02-24T05:25:28.423Z,20.95
2023-02-24T05:27:59.738Z,20.97
2023-02-24T05:30:30.693Z,20.85
2023-02-24T05:33:02.200Z,20.99
2023-02-24T05:35:33.360Z,21.00
2023-02-24T05:38:08.379Z,21.01
2023-02-24T05:40:45.957Z,21.02
2023-02-24T05:43:18.725Z,21.04
2023-02-24T05:45:49.842Z,21.04
2023-02-24T05:48:20.495Z,21.04
2023-02-24T05:50:55.524Z,21.04
2023-02-24T05:53:26.383Z,21.04
2023-02-24T05:55:57.097Z,21.03
2023-02-24T05:58:29.170Z,20.91
2023-02-24T06:01:05.884Z,21.00
2023-02-24T06:03:36.576Z,21.01
2023-02-24T06:06:09.159Z,21.01
2023-02-24T06:08:49.348Z,21.01
2023-02-24T06:11:21.639Z,21.00
2023-02-24T06:13:58.369Z,20.98
2023-02-24T06:16:29.364Z,20.97
2023-02-24T06:19:00.154Z,20.92
2023-02-24T06:21:30.983Z,20.93
2023-02-24T06:24:02.542Z,20.92
2023-02-24T06:26:36.872Z,20.91
2023-02-24T06:29:08.006Z,20.91
2023-02-24T06:31:38.801Z,20.90
2023-02-24T06:34:10.603Z,20.89
2023-02-24T06:36:43.155Z,20.72
2023-02-24T06:39:14.783Z,20.86
2023-02-24T06:41:46.209Z,20.85
2023-02-24T06:44:16.936Z,20.83
2023-02-24T06:46:48.094Z,20.82
2023-02-24T06:49:19.926Z,20.81
2023-02-24T06:51:50.587Z,20.79
2023-02-24T06:54:22.738Z,20.77
2023-02-24T06:56:53.392Z,20.76
2023-02-24T06:59:28.744Z,20.74
2023-02-24T07:02:01.992Z,20.75
2023-02-24T07:04:43.868Z,20.74
2023-02-24T07:07:17.543Z,20.73
2023-02-24T07:09:48.441Z,20.74
2023-02-24T07:12:21.237Z,20.74
2023-02-24T07:14:52.066Z,20.73
2023-02-24T07:17:23.467Z,20.74
2023-02-24T07:19:54.742Z,20.75
2023-02-24T07:22:25.562Z,20.74
2023-02-24T07:25:00.748Z,20.73
2023-02-24T07:27:31.596Z,20.73
2023-02-24T07:30:06.315Z,20.72
2023-02-24T07:32:38.431Z,20.72
2023-02-24T07:35:10.577Z,20.70
2023-02-24T07:37:41.767Z,20.59
2023-02-24T07:40:17.330Z,20.68
2023-02-24T07:42:47.971Z,20.66
2023-02-24T07:45:18.747Z,20.66
2023-02-24T07:47:49.557Z,20.67
2023-02-24T07:50:21.740Z,20.68
2023-02-24T07:52:52.911Z,20.67
2023-02-24T07:55:25.951Z,20.67
2023-02-24T07:57:57.245Z,20.67
2023-02-24T08:00:29.353Z,20.59
2023-02-24T08:03:00.712Z,20.64
2023-02-24T08:05:31.581Z,20.65
2023-02-24T08:08:03.296Z,20.64
2023-02-24T08:10:37.207Z,20.65
2023-02-24T08:13:12.150Z,20.64
2023-02-24T08:15:45.391Z,20.63
2023-02-24T08:18:20.082Z,20.62
2023-02-24T08:20:52.826Z,20.61
2023-02-24T08:23:24.350Z,20.62
2023-02-24T08:25:55.631Z,20.61
2023-02-24T08:28:27.023Z,20.59
2023-02-24T08:30:58.093Z,20.58
2023-02-24T08:33:30.296Z,20.56
2023-02-24T08:36:02.666Z,20.56
2023-02-24T08:38:42.397Z,20.57
2023-02-24T08:41:21.004Z,20.56
2023-02-24T08:43:52.488Z,20.55
2023-02-24T08:46:27.179Z,20.53
2023-02-24T08:49:00.940Z,20.52
2023-02-24T08:51:35.536Z,20.50
2023-02-24T08:54:11.454Z,20.49
2023-02-24T08:56:44.426Z,20.44
2023-02-24T08:59:38.004Z,20.44
2023-02-24T09:02:23.917Z,20.45
2023-02-24T09:04:57.598Z,20.44
2023-02-24T09:07:35.459Z,20.39
2023-02-24T09:10:11.642Z,20.44
2023-02-24T09:12:42.872Z,20.45
2023-02-24T09:15:16.511Z,20.45
2023-02-24T09:17:51.293Z,20.44
2023-02-24T09:20:56.317Z,20.42
2023-02-24T09:23:31.051Z,20.40
2023-02-24T09:26:11.250Z,20.37
2023-02-24T09:28:54.867Z,20.37
2023-02-24T09:31:40.974Z,20.36
2023-02-24T09:34:18.739Z,20.34
2023-02-24T09:37:03.217Z,20.32
2023-02-24T09:40:01.327Z,20.30
2023-02-24T09:42:46.560Z,20.29
2023-02-24T09:45:34.010Z,20.26
2023-02-24T09:48:11.886Z,20.25
2023-02-24T09:51:04.673Z,20.24
2023-02-24T09:53:49.406Z,20.24
2023-02-24T09:56:28.132Z,20.24
2023-02-24T09:59:12.787Z,20.23
2023-02-24T10:01:49.152Z,20.20
2023-02-24T10:04:36.268Z,20.19
2023-02-24T10:07:12.219Z,20.17
2023-02-24T10:09:45.606Z,20.17
2023-02-24T10:12:25.141Z,20.17
2023-02-24T10:15:15.400Z,20.15
2023-02-24T10:17:55.511Z,20.16
2023-02-24T10:20:39.478Z,20.17
2023-02-24T10:23:18.723Z,20.15
2023-02-24T10:25:54.970Z,20.14
2023-02-24T10:28:37.444Z,20.13
2023-02-24T10:31:25.568Z,20.12
2023-02-24T10:34:06.671Z,20.11
2023-02-24T10:36:38.164Z,20.09
2023-02-24T10:39:17.121Z,19.98
2023-02-24T10:41:57.430Z,20.09
2023-02-24T10:44:36.440Z,20.08
2023-02-24T10:47:12.656Z,20.08
2023-02-24T10:49:57.262Z,20.06
2023-02-24T10:52:50.305Z,20.03
2023-02-24T10:55:39.251Z,20.02
2023-02-24T10:58:16.156Z,20.03
2023-02-24T11:01:08.554Z,20.03
2023-02-24T11:03:42.945Z,20.02
2023-02-24T11:06:42.479Z,20.05
2023-02-24T11:09:35.378Z,20.10
2023-02-24T11:12:34.622Z,20.08
2023-02-24T11:15:33.732Z,20.12
2023-02-24T11:18:06.968Z,20.14
2023-02-24T11:20:49.328Z,20.15
2023-02-24T11:23:24.883Z,20.17
2023-02-24T11:25:59.799Z,20.17
2023-02-24T11:28:53.973Z,20.17
2023-02-24T11:31:40.354Z,20.16
2023-02-24T11:34:20.040Z,20.11
2023-02-24T11:37:06.812Z,20.13
2023-02-24T11:39:53.171Z,20.14
2023-02-24T11:42:27.580Z,20.16
2023-02-24T11:45:04.163Z,20.17
2023-02-24T11:47:42.349Z,20.17
2023-02-24T11:50:33.340Z,20.17
2023-02-24T11:53:09.936Z,20.16
2023-02-24T11:55:46.175Z,20.16
2023-02-24T11:58:25.095Z,20.17
2023-02-24T12:01:00.595Z,20.12
2023-02-24T12:03:38.697Z,20.18
2023-02-24T12:06:18.466Z,20.18
2023-02-24T12:08:55.680Z,20.18
2023-02-24T12:11:35.854Z,20.19
2023-02-24T12:14:18.407Z,20.19
2023-02-24T12:16:55.334Z,20.20
2023-02-24T12:19:34.869Z,20.21
2023-02-24T12:22:14.619Z,20.21
2023-02-24T12:24:50.006Z,20.21
2023-02-24T12:27:33.371Z,20.20
2023-02-24T12:30:34.410Z,20.20
2023-02-24T12:33:19.875Z,20.19
2023-02-24T12:36:03.696Z,20.19
2023-02-24T12:38:46.146Z,20.17
2023-02-24T12:41:39.772Z,20.19
2023-02-24T12:44:23.757Z,20.20
2023-02-24T12:47:01.244Z,20.21
2023-02-24T12:50:09.373Z,20.21
2023-02-24T12:52:53.659Z,20.09
2023-02-24T12:55:27.917Z,20.18
2023-02-24T12:58:09.149Z,20.17
2023-02-24T13:00:58.288Z,20.11
2023-02-24T13:03:55.973Z,20.16
2023-02-24T13:06:38.582Z,20.16
2023-02-24T13:09:18.937Z,20.15
2023-02-24T13:11:56.746Z,20.15
2023-02-24T13:14:32.580Z,20.13
2023-02-24T13:17:21.339Z,20.12
2023-02-24T13:19:53.695Z,20.10
2023-02-24T13:22:31.297Z,20.07
2023-02-24T13:25:23.664Z,20.02
2023-02-24T13:28:06.132Z,20.03
2023-02-24T13:30:42.963Z,20.02
2023-02-24T13:33:29.537Z,19.99
2023-02-24T13:36:13.377Z,19.96
2023-02-24T13:38:46.431Z,19.94
2023-02-24T13:41:41.996Z,19.91
2023-02-24T13:44:30.024Z,19.89
2023-02-24T13:47:34.874Z,19.84
2023-02-24T13:50:20.062Z,19.82
2023-02-24T13:53:05.374Z,19.81
2023-02-24T13:55:47.253Z,19.79
2023-02-24T13:58:39.199Z,19.77
2023-02-24T14:01:14.049Z,19.75
2023-02-24T14:03:48.371Z,19.76
2023-02-24T14:06:24.517Z,19.76
2023-02-24T14:08:58.883Z,19.75
2023-02-24T14:11:34.377Z,19.74
2023-02-24T14:14:05.605Z,19.72
2023-02-24T14:16:40.351Z,19.77
2023-02-24T14:19:17.067Z,19.80
2023-02-24T14:21:53.620Z,19.81
2023-02-24T14:24:25.600Z,19.83
2023-02-24T14:26:58.254Z,19.83
2023-02-24T14:29:34.078Z,19.71
2023-02-24T14:32:08.353Z,19.88
2023-02-24T14:34:41.718Z,19.90
2023-02-24T14:37:17.378Z,19.92
2023-02-24T14:39:55.152Z,19.92
2023-02-24T14:42:26.691Z,19.93
2023-02-24T14:44:59.748Z,19.95
2023-02-24T14:47:33.645Z,19.94
2023-02-24T14:50:03.670Z,19.95
2023-02-24T14:52:42.459Z,19.95
2023-02-24T14:55:19.789Z,19.94
2023-02-24T14:57:57.461Z,19.93
2023-02-24T15:00:31.637Z,19.92
2023-02-24T15:03:10.426Z,19.91
2023-02-24T15:05:46.106Z,19.90
2023-02-24T15:08:28.670Z,19.89
2023-02-24T15:10:59.932Z,19.88
2023-02-24T15:13:39.501Z,19.87
2023-02-24T15:16:15.821Z,19.87
2023-02-24T15:18:50.856Z,19.86
2023-02-24T15:21:25.263Z,19.88
2023-02-24T15:24:04.221Z,19.88
2023-02-24T15:26:36.205Z,19.88
2023-02-24T15:29:16.455Z,19.89
2023-02-24T15:31:51.607Z,19.90
2023-02-24T15:34:25.567Z,19.92
2023-02-24T15:36:59.066Z,19.92
2023-02-24T15:39:33.705Z,19.75
2023-02-24T15:42:23.099Z,19.91
2023-02-24T15:44:59.021Z,19.92
2023-02-24T15:47:32.693Z,19.92
2023-02-24T15:50:03.778Z,19.93
2023-02-24T15:52:34.827Z,19.94
2023-02-24T15:55:06.991Z,19.97
2023-02-24T15:57:38.032Z,20.00
2023-02-24T16:00:14.271Z,20.03
2023-02-24T16:02:47.438Z,19.93
2023-02-24T16:05:19.281Z,20.11
2023-02-24T16:07:51.068Z,20.15
2023-02-24T16:10:25.690Z,20.20
2023-02-24T16:12:59.033Z,20.25
2023-02-24T16:15:32.119Z,20.25
2023-02-24T16:18:03.503Z,20.26
2023-02-24T16:20:39.759Z,20.36
2023-02-24T16:23:11.400Z,20.42
2023-02-24T16:25:44.868Z,20.39
2023-02-24T16:28:18.502Z,20.49
2023-02-24T16:30:51.955Z,20.52
2023-02-24T16:33:24.063Z,20.54
2023-02-24T16:35:55.634Z,20.55
2023-02-24T16:38:27.896Z,20.63
2023-02-24T16:40:59.918Z,20.57
2023-02-24T16:43:31.110Z,20.68
2023-02-24T16:46:05.995Z,20.71
2023-02-24T16:48:39.831Z,20.75
2023-02-24T16:51:12.159Z,20.78
2023-02-24T16:53:43.717Z,20.84
2023-02-24T16:56:15.591Z,20.88
2023-02-24T16:58:46.801Z,20.89
2023-02-24T17:01:22.404Z,20.96
2023-02-24T17:03:55.299Z,20.99
2023-02-24T17:06:26.893Z,21.02
2023-02-24T17:08:58.488Z,21.04
2023-02-24T17:11:30.403Z,21.05
2023-02-24T17:14:01.836Z,21.11
2023-02-24T17:16:32.896Z,21.14
2023-02-24T17:19:03.902Z,21.18
2023-02-24T17:21:34.938Z,21.20
2023-02-24T17:24:07.630Z,21.22
2023-02-24T17:26:38.540Z,21.27
2023-02-24T17:29:09.398Z,21.31
2023-02-24T17:31:40.781Z,21.34
2023-02-24T17:34:12.292Z,21.37
2023-02-24T17:36:43.684Z,21.39
2023-02-24T17:39:15.279Z,21.45
2023-02-24T17:41:46.341Z,21.47
2023-02-24T17:44:17.552Z,21.50
2023-02-24T17:46:52.316Z,21.52
2023-02-24T17:49:23.368Z,21.55
2023-02-24T17:52:03.623Z,21.58
2023-02-24T17:54:35.791Z,21.63
2023-02-24T17:57:09.214Z,21.66
2023-02-24T17:59:40.652Z,21.68
2023-02-24T18:02:13.754Z,21.71
2023-02-24T18:04:45.293Z,21.74
2023-02-24T18:07:16.316Z,21.77
2023-02-24T18:09:47.274Z,21.78
2023-02-24T18:12:18.808Z,21.80
2023-02-24T18:14:59.117Z,21.83
2023-02-24T18:17:37.454Z,21.85
2023-02-24T18:20:12.254Z,21.87
2023-02-24T18:22:43.343Z,21.89
2023-02-24T18:25:14.875Z,21.91
2023-02-24T18:27:45.940Z,21.93
2023-02-24T18:30:18.748Z,21.96
2023-02-24T18:32:52.070Z,21.99
2023-02-24T18:35:23.679Z,22.01
2023-02-24T18:37:56.730Z,22.03
2023-02-24T18:40:29.825Z,22.04
2023-02-24T18:43:01.069Z,22.07
2023-02-24T18:45:32.722Z,22.09
2023-02-24T18:48:05.189Z,22.11
2023-02-24T18:50:37.047Z,22.12
2023-02-24T18:53:08.266Z,22.14
2023-02-24T18:55:39.564Z,22.14
2023-02-24T18:58:10.703Z,22.15
2023-02-24T19:00:42.417Z,22.16
2023-02-24T19:03:13.660Z,22.18
2023-02-24T19:05:49.049Z,22.19
2023-02-24T19:08:20.051Z,22.21
2023-02-24T19:10:51.577Z,22.18
2023-02-24T19:13:24.172Z,22.21
2023-02-24T19:15:55.772Z,22.24
2023-02-24T19:18:27.026Z,22.26
2023-02-24T19:20:58.088Z,22.16
2023-02-24T19:23:29.223Z,22.28
2023-02-24T19:26:00.246Z,22.16
2023-02-24T19:28:32.055Z,22.28
2023-02-24T19:31:03.235Z,22.28
2023-02-24T19:33:34.511Z,22.28
2023-02-24T19:36:06.042Z,22.28
2023-02-24T19:38:37.162Z,22.28
2023-02-24T19:41:08.289Z,22.28
2023-02-24T19:43:41.875Z,22.29
2023-02-24T19:46:14.834Z,22.31
2023-02-24T19:48:47.304Z,22.32
2023-02-24T19:51:20.218Z,22.32
2023-02-24T19:53:55.319Z,22.33
2023-02-24T19:56:28.196Z,22.33
2023-02-24T19:59:01.191Z,22.34
2023-02-24T20:01:32.801Z,22.34
2023-02-24T20:04:05.986Z,22.34
2023-02-24T20:06:38.896Z,22.34
2023-02-24T20:09:12.247Z,22.35
2023-02-24T20:11:44.350Z,22.36
2023-02-24T20:14:16.468Z,22.36
2023-02-24T20:16:48.500Z,22.37
2023-02-24T20:19:19.716Z,22.35
2023-02-24T20:21:51.002Z,22.35
2023-02-24T20:24:22.710Z,22.33
2023-02-24T20:26:53.681Z,22.34
2023-02-24T20:29:24.828Z,22.34
2023-02-24T20:31:56.009Z,22.24
2023-02-24T20:34:27.120Z,22.33
2023-02-24T20:36:59.394Z,22.32
2023-02-24T20:39:32.233Z,22.31
2023-02-24T20:42:03.552Z,22.31
2023-02-24T20:44:34.421Z,22.23
2023-02-24T20:47:05.532Z,22.30
2023-02-24T20:49:36.594Z,22.31
2023-02-24T20:52:07.475Z,22.31
2023-02-24T20:54:38.554Z,22.30
2023-02-24T20:57:09.516Z,22.29
2023-02-24T20:59:49.179Z,22.30
2023-02-24T21:02:26.265Z,22.30
2023-02-24T21:04:57.216Z,22.31
2023-02-24T21:07:28.230Z,22.29
2023-02-24T21:09:59.138Z,22.28
2023-02-24T21:12:30.327Z,22.29
2023-02-24T21:15:01.335Z,22.29
2023-02-24T21:17:34.287Z,22.28
2023-02-24T21:20:05.851Z,22.27
2023-02-24T21:22:36.635Z,22.26
2023-02-24T21:25:10.846Z,22.25
2023-02-24T21:27:41.806Z,22.26
2023-02-24T21:30:14.770Z,22.26
2023-02-24T21:32:45.881Z,22.24
2023-02-24T21:35:16.908Z,22.23
2023-02-24T21:37:48.219Z,22.23
2023-02-24T21:40:19.616Z,22.22
2023-02-24T21:42:50.642Z,22.22
2023-02-24T21:45:21.689Z,22.21
2023-02-24T21:47:52.825Z,22.20
2023-02-24T21:50:24.009Z,22.19
2023-02-24T21:52:56.013Z,22.18
2023-02-24T21:55:27.506Z,22.17
2023-02-24T21:57:58.340Z,22.16
2023-02-24T22:00:30.780Z,22.15
2023-02-24T22:03:02.150Z,22.13
2023-02-24T22:05:33.896Z,22.12
2023-02-24T22:08:04.785Z,22.11
2023-02-24T22:10:35.587Z,22.10
2023-02-24T22:13:06.352Z,22.09
2023-02-24T22:15:39.205Z,22.08
2023-02-24T22:18:10.443Z,21.96
2023-02-24T22:20:42.154Z,22.06
2023-02-24T22:23:13.087Z,22.04
2023-02-24T22:25:43.954Z,22.03
2023-02-24T22:28:14.770Z,22.03
2023-02-24T22:30:45.593Z,22.03
2023-02-24T22:33:16.445Z,22.02
2023-02-24T22:35:47.800Z,21.97
2023-02-24T22:38:18.525Z,22.00
2023-02-24T22:41:00.134Z,22.00
2023-02-24T22:43:31.842Z,21.99
2023-02-24T22:46:04.239Z,21.84
2023-02-24T22:48:36.646Z,21.99
2023-02-24T22:51:09.276Z,21.97
2023-02-24T22:53:42.814Z,21.97
2023-02-24T22:56:15.585Z,21.90
2023-02-24T22:58:47.278Z,21.96
2023-02-24T23:01:20.120Z,21.95
2023-02-24T23:03:51.250Z,21.93
2023-02-24T23:06:26.087Z,21.94
2023-02-24T23:08:58.222Z,21.93
2023-02-24T23:11:31.307Z,21.91
2023-02-24T23:14:06.022Z,21.91
2023-02-24T23:16:38.749Z,21.89
2023-02-24T23:19:13.161Z,21.88
2023-02-24T23:21:46.408Z,21.86
2023-02-24T23:24:18.170Z,21.71
2023-02-24T23:26:51.413Z,21.81
2023-02-24T23:29:23.310Z,21.77
2023-02-24T23:31:55.220Z,21.74
2023-02-24T23:34:26.160Z,21.70
2023-02-24T23:36:56.951Z,21.68
2023-02-24T23:39:27.683Z,21.66
2023-02-24T23:41:58.572Z,21.62
2023-02-24T23:44:29.299Z,21.59
2023-02-24T23:47:01.341Z,21.43
2023-02-24T23:49:47.285Z,21.54
2023-02-24T23:52:19.515Z,21.52
2023-02-24T23:54:52.730Z,21.50
2023-02-24T23:57:23.851Z,21.49
2023-02-24T23:59:54.927Z,21.46
